Time;durP1;ratioP1;P1;durP2;ratioP2;P2;SDS_P1;SDS_P2;PMS_P1;PMS_P2;Temp;Humidity;BMP_temperature;BMP_pressure;BME280_temperature;BME280_humidity;BME280_pressure;Samples;Min_cycle;Max_cycle;Signal;HPM_P1;HPM_P2
2023/04/30 00:01:20;;;;;;;20.48;11.13;;;;;;;-146.27;100.00;83840.84;5031412;28;20491;-69
2023/04/30 00:03:46;;;;;;;17.55;10.90;;;;;;;-146.27;100.00;83828.78;5030776;28;20051;-71
2023/04/30 00:06:11;;;;;;;20.00;10.30;;;;;;;-146.27;100.00;83810.69;5030777;28;20384;-69
2023/04/30 00:08:36;;;;;;;15.88;9.50;;;;;;;-146.27;100.00;83826.75;5033845;28;20103;-69
2023/04/30 00:11:02;;;;;;;23.05;9.75;;;;;;;-146.27;100.00;83836.81;5029415;28;20128;-69
2023/04/30 00:13:27;;;;;;;18.15;10.15;;;;;;;-146.27;100.00;83820.75;5029851;28;20112;-69
2023/04/30 00:15:52;;;;;;;19.55;8.65;;;;;;;-146.27;100.00;83804.66;5026570;28;20030;-69
2023/04/30 00:18:18;;;;;;;15.85;9.30;;;;;;;-146.27;100.00;83830.78;5032955;28;20089;-69
2023/04/30 00:20:43;;;;;;;14.82;8.55;;;;;;;-146.27;100.00;83838.81;5026882;28;20026;-69
2023/04/30 00:23:08;;;;;;;16.42;9.35;;;;;;;-146.27;100.00;83782.56;5028908;28;20057;-69
2023/04/30 00:25:34;;;;;;;19.33;8.70;;;;;;;-146.27;100.00;83832.78;5029446;28;20029;-69
2023/04/30 00:27:59;;;;;;;15.70;8.98;;;;;;;-146.27;100.00;83875.00;5029525;28;20029;-69
2023/04/30 00:30:25;;;;;;;16.73;9.40;;;;;;;-146.27;100.00;83794.63;5029368;28;20029;-69
2023/04/30 00:32:50;;;;;;;17.42;9.40;;;;;;;-146.27;100.00;83834.81;5029726;28;20033;-69
2023/04/30 00:35:15;;;;;;;17.15;8.98;;;;;;;-146.27;100.00;83870.97;5028917;28;20048;-69
2023/04/30 00:37:41;;;;;;;17.77;9.23;;;;;;;-146.27;100.00;83870.97;5026053;28;20026;-70
2023/04/30 00:40:08;;;;;;;15.40;8.85;;;;;;;-146.27;100.00;83846.84;5029079;28;20452;-69
2023/04/30 00:42:33;;;;;;;21.30;9.43;;;;;;;-146.27;100.00;83881.03;5030266;28;20461;-70
2023/04/30 00:44:58;;;;;;;16.08;9.82;;;;;;;-146.27;100.00;83887.06;5028152;28;20037;-69
2023/04/30 00:47:24;;;;;;;16.55;9.52;;;;;;;-146.27;100.00;83858.91;5028654;28;20029;-69
2023/04/30 00:49:49;;;;;;;14.13;9.65;;;;;;;-146.27;100.00;83901.13;5029619;28;20060;-69
2023/04/30 00:52:15;;;;;;;17.25;9.98;;;;;;;-146.27;100.00;83868.97;5028014;28;20057;-69
2023/04/30 00:54:40;;;;;;;19.48;10.75;;;;;;;-146.27;100.00;83887.06;5028901;28;20075;-69
2023/04/30 00:57:08;;;;;;;24.17;10.82;;;;;;;-146.27;100.00;83872.97;5028686;28;20018;-69
2023/04/30 00:59:33;;;;;;;20.15;9.98;;;;;;;-146.27;100.00;83907.16;5015335;28;20412;-69
2023/04/30 01:01:59;;;;;;;20.13;10.85;;;;;;;-146.27;100.00;83935.28;5027147;28;20175;-70
2023/04/30 01:04:25;;;;;;;16.52;10.63;;;;;;;-146.27;100.00;83899.09;5025611;28;20128;-69
2023/04/30 01:06:50;;;;;;;24.90;11.40;;;;;;;-146.27;100.00;83929.25;5026962;28;20036;-70
2023/04/30 01:09:16;;;;;;;20.80;11.35;;;;;;;-146.27;100.00;83955.38;5029039;28;20475;-69
2023/04/30 01:11:51;;;;;;;21.80;10.93;;;;;;;-146.27;100.00;83945.31;5032297;28;20395;-69
2023/04/30 01:14:34;;;;;;;18.08;10.57;;;;;;;-146.27;100.00;83931.25;5029164;28;20111;-69
2023/04/30 01:17:09;;;;;;;16.67;10.63;;;;;;;-146.27;100.00;83949.34;5029037;28;20076;-69
2023/04/30 01:19:43;;;;;;;20.50;10.15;;;;;;;-146.27;100.00;83931.25;5033419;28;20104;-70
2023/04/30 01:22:11;;;;;;;;;;;;;;;-146.27;100.00;83917.19;5032335;28;20025;-69
2023/04/30 01:24:52;;;;;;;18.02;10.25;;;;;;;-146.27;100.00;83955.38;5031962;28;19952;-68
2023/04/30 01:28:15;;;;;;;20.85;10.57;;;;;;;-146.27;100.00;83993.56;5028096;28;20391;-69
2023/04/30 01:30:43;;;;;;;21.58;10.60;;;;;;;-146.27;100.00;83931.25;4964848;28;20035;-69
2023/04/30 01:33:09;;;;;;;18.48;11.10;;;;;;;-146.27;100.00;83955.38;4965553;28;20030;-70
2023/04/30 01:35:47;;;;;;;19.35;10.75;;;;;;;-146.27;100.00;83943.31;5007923;28;20100;-69
2023/04/30 01:38:26;;;;;;;16.33;10.70;;;;;;;-146.27;100.00;83941.31;5033592;28;20029;-69
2023/04/30 01:40:58;;;;;;;18.63;10.48;;;;;;;-146.27;100.00;83983.50;5025906;28;20033;-69
2023/04/30 01:43:38;;;;;;;16.83;10.48;;;;;;;-146.27;100.00;83991.56;5032599;28;20033;-70
2023/04/30 01:46:23;;;;;;;22.77;10.55;;;;;;;-146.27;100.00;84013.66;5032155;28;20722;-69
2023/04/30 01:48:57;;;;;;;21.75;10.95;;;;;;;-146.27;100.00;83989.53;5033466;28;20025;-69
2023/04/30 01:51:31;;;;;;;19.77;10.18;;;;;;;-146.27;100.00;84015.66;5023265;28;20037;-69
2023/04/30 01:54:02;;;;;;;17.75;10.63;;;;;;;-146.27;100.00;83983.50;5033508;28;20057;-69
2023/04/30 01:56:34;;;;;;;22.27;10.70;;;;;;;-146.27;100.00;83999.59;5033027;28;20065;-69
2023/04/30 01:59:01;;;;;;;23.33;11.10;;;;;;;-146.27;100.00;84015.66;5034249;28;20083;-69
2023/04/30 02:01:29;;;;;;;22.17;10.52;;;;;;;-146.27;100.00;83991.56;5032710;28;20048;-69
2023/04/30 02:03:55;;;;;;;16.50;10.63;;;;;;;-146.27;100.00;83999.59;5031744;28;20084;-69
2023/04/30 02:06:21;;;;;;;19.73;10.68;;;;;;;-146.27;100.00;84051.84;5020047;28;20029;-69
2023/04/30 02:08:46;;;;;;;22.05;11.75;;;;;;;-146.27;100.00;84037.78;5031609;28;20041;-70
2023/04/30 02:11:12;;;;;;;20.77;10.80;;;;;;;-146.27;100.00;84017.69;5030569;28;20564;-69
2023/04/30 02:13:37;;;;;;;18.85;10.68;;;;;;;-146.27;100.00;84007.63;5031412;28;20070;-70
2023/04/30 02:16:03;;;;;;;15.98;10.73;;;;;;;-146.27;100.00;84043.81;5045670;28;20061;-69
2023/04/30 02:18:29;;;;;;;19.42;11.05;;;;;;;-146.27;100.00;84019.69;5032095;28;20060;-69
2023/04/30 02:20:54;;;;;;;17.98;10.77;;;;;;;-146.27;100.00;84009.63;5031333;28;20036;-69
2023/04/30 02:23:19;;;;;;;22.13;10.90;;;;;;;-146.27;100.00;84037.78;5031792;28;20034;-69
2023/04/30 02:25:45;;;;;;;24.98;11.48;;;;;;;-146.27;100.00;84041.78;5030516;28;20104;-69
2023/04/30 02:28:10;;;;;;;24.23;12.45;;;;;;;-146.27;100.00;84029.72;5029335;28;20029;-70
2023/04/30 02:30:35;;;;;;;18.83;11.50;;;;;;;-146.27;100.00;84071.94;5030717;28;20033;-69
2023/04/30 02:33:02;;;;;;;23.90;12.73;;;;;;;-146.27;100.00;83959.41;5032613;28;20092;-69
2023/04/30 02:35:27;;;;;;;28.27;13.02;;;;;;;-146.27;100.00;84071.94;5031028;28;20040;-69
2023/04/30 02:37:52;;;;;;;24.23;13.10;;;;;;;-146.27;100.00;84023.69;5030565;28;20030;-69
2023/04/30 02:40:18;;;;;;;23.85;13.27;;;;;;;-146.27;100.00;84033.75;5031841;28;20057;-70
2023/04/30 02:42:43;;;;;;;27.83;13.45;;;;;;;-146.27;100.00;84043.81;5046301;28;20091;-69
2023/04/30 02:45:08;;;;;;;23.77;12.90;;;;;;;-146.27;100.00;84059.88;5027017;28;20025;-70
2023/04/30 02:47:34;;;;;;;24.90;13.50;;;;;;;-146.27;100.00;84025.72;5031665;28;20029;-69
2023/04/30 02:50:00;;;;;;;26.25;12.07;;;;;;;-146.27;100.00;83959.41;5029861;28;20100;-69
2023/04/30 02:52:25;;;;;;;22.60;12.68;;;;;;;-146.27;100.00;84027.72;5030213;28;20055;-70
2023/04/30 02:54:50;;;;;;;23.50;13.52;;;;;;;-146.27;100.00;84011.66;5028785;28;20060;-69
2023/04/30 02:57:16;;;;;;;20.38;12.55;;;;;;;-146.27;100.00;84035.75;5030694;28;20406;-69
2023/04/30 02:59:44;;;;;;;23.55;12.85;;;;;;;-146.27;100.00;84059.88;5030682;28;20069;-69
2023/04/30 03:02:10;;;;;;;23.67;13.77;;;;;;;-146.27;100.00;84098.06;5030584;28;20046;-69
2023/04/30 03:04:35;;;;;;;23.98;13.45;;;;;;;-146.27;100.00;84059.88;5028094;28;20480;-69
2023/04/30 03:07:02;;;;;;;22.52;13.10;;;;;;;-146.27;100.00;84075.94;5031192;28;20033;-67
2023/04/30 03:09:29;;;;;;;24.10;11.80;;;;;;;-146.27;100.00;84061.88;5026811;28;20116;-69
2023/04/30 03:11:54;;;;;;;24.73;12.05;;;;;;;-146.27;100.00;84088.00;5031598;28;20116;-69
2023/04/30 03:14:19;;;;;;;22.73;13.05;;;;;;;-146.27;100.00;84075.94;5029986;28;20029;-69
2023/04/30 03:16:45;;;;;;;22.10;12.95;;;;;;;-146.27;100.00;84055.84;5030883;28;20029;-68
2023/04/30 03:19:10;;;;;;;21.23;11.95;;;;;;;-146.27;100.00;84035.75;5031078;28;20026;-70
2023/04/30 03:21:35;;;;;;;24.05;12.40;;;;;;;-146.27;100.00;84025.72;5031206;28;20025;-70
2023/04/30 03:24:01;;;;;;;24.73;14.20;;;;;;;-146.27;100.00;84041.78;5030864;28;20052;-70
2023/04/30 03:26:26;;;;;;;24.20;13.35;;;;;;;-146.27;100.00;84003.59;5030390;28;20033;-69
2023/04/30 03:28:54;;;;;;;21.15;12.90;;;;;;;-146.27;100.00;84031.75;5031298;28;20333;-69
2023/04/30 03:31:19;;;;;;;25.48;13.15;;;;;;;-146.27;100.00;84019.69;5028932;28;20025;-70
2023/04/30 03:33:44;;;;;;;30.42;13.77;;;;;;;-146.27;100.00;84007.63;5030208;28;20040;-69
2023/04/30 03:36:09;;;;;;;21.33;12.52;;;;;;;-146.27;100.00;84049.84;5029064;28;20029;-69
2023/04/30 03:38:35;;;;;;;21.15;13.32;;;;;;;-146.27;100.00;84049.84;5022646;28;20388;-70
2023/04/30 03:41:00;;;;;;;21.60;13.25;;;;;;;-146.27;100.00;84035.75;5028770;28;20538;-69
2023/04/30 03:43:25;;;;;;;21.00;12.75;;;;;;;-146.27;100.00;84059.88;5026423;28;20032;-69
2023/04/30 03:45:51;;;;;;;22.48;13.60;;;;;;;-146.27;100.00;84051.84;5029534;28;20089;-69
2023/04/30 03:48:17;;;;;;;22.20;12.70;;;;;;;-146.27;100.00;84047.81;5028023;28;20057;-69
2023/04/30 03:50:42;;;;;;;25.30;12.80;;;;;;;-146.27;100.00;84059.88;5029957;28;20053;-69
2023/04/30 03:53:07;;;;;;;21.73;12.73;;;;;;;-146.27;100.00;84043.81;5029608;28;20032;-69
2023/04/30 03:55:33;;;;;;;24.05;13.25;;;;;;;-146.27;100.00;84035.75;5030091;28;20045;-68
2023/04/30 03:57:59;;;;;;;24.25;12.15;;;;;;;-146.27;100.00;84017.69;5029816;28;20024;-71
2023/04/30 04:00:24;;;;;;;29.02;12.95;;;;;;;-146.27;100.00;84104.09;5027988;28;20538;-69
2023/04/30 04:02:49;;;;;;;23.15;11.85;;;;;;;-146.27;100.00;84081.97;5029250;28;20053;-69
2023/04/30 04:05:15;;;;;;;18.90;11.68;;;;;;;-146.27;100.00;84077.97;5028636;28;20029;-70
2023/04/30 04:07:41;;;;;;;20.20;12.18;;;;;;;-146.27;100.00;84069.94;5028981;28;20511;-70
2023/04/30 04:10:06;;;;;;;18.23;11.32;;;;;;;-146.27;100.00;84059.88;5028743;28;20029;-70
2023/04/30 04:12:32;;;;;;;22.10;11.52;;;;;;;-146.27;100.00;84104.09;5020914;28;20045;-69
2023/04/30 04:14:57;;;;;;;20.05;10.98;;;;;;;-146.27;100.00;84051.84;5028732;28;20052;-70
2023/04/30 04:17:23;;;;;;;20.25;11.30;;;;;;;-146.27;100.00;84045.81;5030050;28;20108;-70
2023/04/30 04:19:48;;;;;;;20.52;11.80;;;;;;;-146.27;100.00;84071.94;5029528;28;20364;-70
2023/04/30 04:22:13;;;;;;;23.48;11.70;;;;;;;-146.27;100.00;84084.00;5030002;28;20043;-69
2023/04/30 04:24:39;;;;;;;21.50;11.32;;;;;;;-146.27;100.00;84084.00;5029779;28;20037;-70
2023/04/30 04:27:04;;;;;;;20.52;13.00;;;;;;;-146.27;100.00;84043.81;5031764;28;20059;-69
2023/04/30 04:29:31;;;;;;;22.38;11.52;;;;;;;-146.27;100.00;84031.75;5019898;28;20048;-70
2023/04/30 04:31:56;;;;;;;23.63;12.43;;;;;;;-146.27;100.00;84033.75;5030101;28;20108;-69
2023/04/30 04:34:21;;;;;;;22.45;11.63;;;;;;;-146.27;100.00;84029.72;5028227;28;20175;-69
2023/04/30 04:36:47;;;;;;;21.17;11.70;;;;;;;-146.27;100.00;84045.81;5029553;28;20575;-69
2023/04/30 04:39:13;;;;;;;20.88;11.57;;;;;;;-146.27;100.00;84031.75;5030087;28;20029;-69
2023/04/30 04:41:38;;;;;;;16.27;10.30;;;;;;;-146.27;100.00;84043.81;5029830;28;20029;-68
2023/04/30 04:44:04;;;;;;;23.17;11.27;;;;;;;-146.27;100.00;84023.69;5030259;28;20514;-70
2023/04/30 04:46:30;;;;;;;21.67;10.57;;;;;;;-146.27;100.00;84015.66;5025551;28;20112;-70
2023/04/30 04:48:58;;;;;;;21.25;11.55;;;;;;;-146.27;100.00;84015.66;5029626;28;20031;-68
2023/04/30 04:51:24;;;;;;;16.98;10.43;;;;;;;-146.27;100.00;84055.84;5027676;28;20033;-69
2023/04/30 04:53:49;;;;;;;18.00;10.57;;;;;;;-146.27;100.00;84031.75;5025597;28;20030;-69
2023/04/30 04:56:15;;;;;;;17.55;10.30;;;;;;;-146.27;100.00;84011.66;5029451;28;20423;-69
2023/04/30 04:58:41;;;;;;;18.90;11.13;;;;;;;-146.27;100.00;84035.75;5029455;28;20056;-69
2023/04/30 05:01:08;;;;;;;22.33;10.65;;;;;;;-146.27;100.00;84063.91;5028517;28;20037;-69
2023/04/30 05:03:35;;;;;;;19.58;10.70;;;;;;;-146.27;100.00;84039.78;5027806;28;20025;-70
2023/04/30 05:06:01;;;;;;;18.02;10.48;;;;;;;-146.27;100.00;84025.72;5024756;28;20079;-70
2023/04/30 05:08:27;;;;;;;20.10;10.73;;;;;;;-146.27;100.00;84029.72;5028358;28;20451;-70
2023/04/30 05:10:52;;;;;;;20.10;11.02;;;;;;;-146.27;100.00;84031.75;5028546;28;20050;-69
2023/04/30 05:13:17;;;;;;;24.95;12.13;;;;;;;-146.27;100.00;83977.47;5029593;28;20060;-69
2023/04/30 05:15:43;;;;;;;18.63;10.90;;;;;;;-146.27;100.00;84007.63;5029730;28;20025;-69
2023/04/30 05:18:08;;;;;;;18.45;11.18;;;;;;;-146.27;100.00;83979.50;5029607;28;20083;-70
2023/04/30 05:20:33;;;;;;;22.10;11.10;;;;;;;-146.27;100.00;83995.56;5028187;28;20060;-69
2023/04/30 05:22:59;;;;;;;15.90;10.23;;;;;;;-146.27;100.00;83955.38;5029236;28;20329;-70
2023/04/30 05:25:24;;;;;;;18.02;10.10;;;;;;;-146.27;100.00;83943.31;5028779;28;20473;-69
2023/04/30 05:27:49;;;;;;;16.38;9.27;;;;;;;-146.27;100.00;83953.38;5031321;28;20519;-69
2023/04/30 05:30:15;;;;;;;16.90;9.55;;;;;;;-146.27;100.00;83909.16;5013197;28;20022;-70
2023/04/30 05:32:41;;;;;;;16.55;9.95;;;;;;;-146.27;100.00;83929.25;5029173;28;20061;-69
2023/04/30 05:35:07;;;;;;;14.75;8.73;;;;;;;-146.27;100.00;83923.22;5029195;28;20452;-70
2023/04/30 05:37:32;;;;;;;22.70;9.52;;;;;;;-146.27;100.00;83903.13;5029001;28;20109;-70
2023/04/30 05:39:58;;;;;;;16.73;8.27;;;;;;;-146.27;100.00;83891.06;5029605;28;20100;-69
2023/04/30 05:42:23;;;;;;;13.23;9.55;;;;;;;-146.27;100.00;83917.19;5042682;28;20458;-69
2023/04/30 05:44:49;;;;;;;14.95;9.40;;;;;;;-146.27;100.00;83903.13;5036434;28;20030;-70
2023/04/30 05:47:15;;;;;;;16.38;8.65;;;;;;;-146.27;100.00;83891.06;5028621;28;20496;-70
2023/04/30 05:49:40;;;;;;;14.35;8.35;;;;;;;-146.27;100.00;83923.22;5028814;28;20032;-69
2023/04/30 05:52:05;;;;;;;13.20;8.50;;;;;;;-146.27;100.00;83875.00;5028833;28;20037;-69
2023/04/30 05:54:31;;;;;;;13.45;8.48;;;;;;;-146.27;100.00;83903.13;5028273;28;20545;-69
2023/04/30 05:56:56;;;;;;;15.10;8.88;;;;;;;-146.27;100.00;83891.06;5028297;28;20033;-69
2023/04/30 05:59:22;;;;;;;14.60;8.65;;;;;;;-146.27;100.00;83858.91;5029549;28;20493;-69
2023/04/30 06:01:47;;;;;;;15.07;8.27;;;;;;;-146.27;100.00;83850.88;5029045;28;20036;-69
2023/04/30 06:04:13;;;;;;;17.80;7.45;;;;;;;-146.27;100.00;83818.72;5030518;28;20035;-70
2023/04/30 06:06:38;;;;;;;11.13;7.50;;;;;;;-146.27;100.00;83828.78;5032571;28;20033;-70
2023/04/30 06:09:04;;;;;;;14.70;7.45;;;;;;;-146.27;100.00;83828.78;5031530;28;20113;-70
2023/04/30 06:11:30;;;;;;;10.63;6.63;;;;;;;-146.27;100.00;83810.69;5030711;28;20084;-69
2023/04/30 06:13:55;;;;;;;10.20;6.75;;;;;;;-146.27;100.00;83814.72;5031649;28;20030;-70
2023/04/30 06:16:21;;;;;;;11.82;7.38;;;;;;;-146.27;100.00;83798.63;5030148;28;20099;-69
2023/04/30 06:18:46;;;;;;;14.18;6.63;;;;;;;-146.27;100.00;83816.72;5026251;28;20021;-69
2023/04/30 06:21:11;;;;;;;11.38;6.43;;;;;;;-146.27;100.00;83800.63;5031383;28;20029;-69
2023/04/30 06:23:37;;;;;;;13.75;6.47;;;;;;;-146.27;100.00;83798.63;5031456;28;20107;-70
2023/04/30 06:26:02;;;;;;;12.55;6.70;;;;;;;-146.27;100.00;83758.44;5031887;28;20051;-71
2023/04/30 06:28:28;;;;;;;14.07;6.80;;;;;;;-146.27;100.00;83790.59;5032216;28;20139;-69
2023/04/30 06:30:54;;;;;;;10.00;6.07;;;;;;;-146.27;100.00;83764.47;5030079;28;20021;-69
2023/04/30 06:33:20;;;;;;;10.77;6.28;;;;;;;-146.27;100.00;83730.31;5024649;28;20029;-70
2023/04/30 06:35:46;;;;;;;9.70;6.35;;;;;;;-146.27;100.00;83728.31;5036573;28;20103;-72
2023/04/30 06:38:11;;;;;;;9.80;6.03;;;;;;;-146.27;100.00;83718.25;5028349;28;20052;-72
2023/04/30 06:40:37;;;;;;;10.07;6.00;;;;;;;-146.27;100.00;83762.47;5026729;28;20021;-71
2023/04/30 06:43:02;;;;;;;8.45;6.65;;;;;;;-146.27;100.00;83728.31;5033601;28;20527;-72
2023/04/30 06:45:28;;;;;;;8.93;6.13;;;;;;;-146.27;100.00;83702.19;5031782;28;20021;-72
2023/04/30 06:47:53;;;;;;;11.88;6.75;;;;;;;-146.27;100.00;83694.13;5031562;28;20108;-72
2023/04/30 06:50:20;;;;;;;9.90;5.88;;;;;;;-146.27;100.00;83682.09;5029754;28;20392;-71
2023/04/30 06:52:45;;;;;;;11.23;6.03;;;;;;;-146.27;100.00;83690.13;5029845;28;20025;-72
2023/04/30 06:55:11;;;;;;;9.20;5.25;;;;;;;-146.27;100.00;83678.06;5030299;28;20036;-72
2023/04/30 06:57:36;;;;;;;8.63;5.45;;;;;;;-146.27;100.00;83670.03;5029793;28;20021;-72
2023/04/30 07:00:06;;;;;;;8.40;5.55;;;;;;;-146.27;100.00;83651.94;5029399;28;20026;-71
2023/04/30 07:02:31;;;;;;;11.82;6.45;;;;;;;-146.27;100.00;83651.94;5029757;28;20237;-72
2023/04/30 07:04:57;;;;;;;8.88;5.28;;;;;;;-146.27;100.00;83621.81;5029944;28;20487;-72
2023/04/30 07:07:22;;;;;;;7.30;5.53;;;;;;;-146.27;100.00;83657.97;5028168;28;20095;-73
2023/04/30 07:09:48;;;;;;;10.63;6.38;;;;;;;-146.27;100.00;83615.78;5026228;28;20507;-72
2023/04/30 07:12:13;;;;;;;9.18;5.80;;;;;;;-146.27;100.00;83525.34;5022218;28;20626;-73
2023/04/30 07:14:39;;;;;;;10.30;5.63;;;;;;;-146.27;100.00;83589.66;5029285;28;20105;-72
2023/04/30 07:17:04;;;;;;;9.73;5.90;;;;;;;-146.27;99.83;83583.63;5028751;28;20096;-72
2023/04/30 07:19:31;;;;;;;10.95;5.72;;;;;;;-146.27;99.39;83601.72;5028893;28;20053;-72
2023/04/30 07:21:56;;;;;;;11.85;7.13;;;;;;;-146.27;99.54;83585.63;5030226;28;20500;-72
2023/04/30 07:24:22;;;;;;;11.00;5.75;;;;;;;-146.27;99.03;83607.72;5029397;28;20079;-72
2023/04/30 07:26:47;;;;;;;10.70;6.13;;;;;;;-146.27;99.11;83569.56;5030777;28;20033;-72
2023/04/30 07:29:12;;;;;;;15.65;6.63;;;;;;;-146.27;98.09;83531.38;5023206;28;20025;-73
2023/04/30 07:31:37;;;;;;;11.68;6.40;;;;;;;-146.27;97.18;83527.34;5027551;28;20021;-72
2023/04/30 07:34:07;;;;;;;10.43;6.13;;;;;;;-146.27;97.42;83565.53;5021775;28;20026;-71
2023/04/30 07:36:33;;;;;;;10.57;6.07;;;;;;;-146.27;96.38;83533.38;5030629;28;20151;-71
2023/04/30 07:38:58;;;;;;;13.27;6.38;;;;;;;-146.27;97.54;83519.31;5027493;28;20115;-71
2023/04/30 07:41:25;;;;;;;9.38;5.75;;;;;;;-146.27;96.73;83465.06;5027495;28;20472;-70
2023/04/30 07:43:50;;;;;;;11.13;6.18;;;;;;;-146.27;96.43;83503.25;5030102;28;20062;-72
2023/04/30 07:46:15;;;;;;;10.95;6.43;;;;;;;-146.27;96.25;83489.19;5028733;28;20030;-72
2023/04/30 07:48:41;;;;;;;8.90;5.55;;;;;;;-146.27;96.12;83412.81;5026799;28;20045;-72
2023/04/30 07:51:06;;;;;;;10.57;6.18;;;;;;;-146.27;96.41;83412.81;5024096;28;20026;-72
2023/04/30 07:53:31;;;;;;;9.52;5.35;;;;;;;-146.27;94.65;83408.81;5026409;28;20643;-72
2023/04/30 07:55:57;;;;;;;12.32;6.38;;;;;;;-146.27;95.13;83406.78;5026924;28;20029;-72
2023/04/30 07:58:22;;;;;;;7.78;5.53;;;;;;;-146.27;95.50;83356.56;5026873;28;20353;-73
2023/04/30 08:00:47;;;;;;;9.93;6.15;;;;;;;-146.27;94.93;83330.44;5027230;28;20508;-72
2023/04/30 08:03:13;;;;;;;8.75;5.60;;;;;;;-146.27;95.37;83340.50;5029780;28;20342;-71
2023/04/30 08:05:39;;;;;;;10.55;5.40;;;;;;;-146.27;94.10;83314.38;5028405;28;20026;-72
2023/04/30 08:08:05;;;;;;;8.18;5.85;;;;;;;-146.27;93.50;83328.44;5028350;28;20242;-72
2023/04/30 08:10:30;;;;;;;7.68;5.60;;;;;;;-146.27;92.47;83302.31;5026509;28;20029;-72
2023/04/30 08:12:56;;;;;;;6.30;4.90;;;;;;;-146.27;93.08;83284.22;5023919;28;20044;-74
2023/04/30 08:15:21;;;;;;;7.55;5.03;;;;;;;-146.27;91.71;83290.25;5024607;28;20033;-69
2023/04/30 08:17:51;;;;;;;8.52;4.55;;;;;;;-146.27;89.62;83260.13;5025532;28;20106;-69
2023/04/30 08:20:16;;;;;;;8.48;5.13;;;;;;;-146.27;88.39;83252.09;5027502;28;20021;-70
2023/04/30 08:22:43;;;;;;;9.18;4.90;;;;;;;-146.27;88.56;83223.94;5027435;28;20075;-68
2023/04/30 08:25:11;;;;;;;6.38;4.78;;;;;;;-146.27;89.94;83223.94;5030228;28;20025;-69
2023/04/30 08:27:37;;;;;;;7.57;5.72;;;;;;;-146.27;89.30;83201.84;5029909;28;20040;-70
2023/04/30 08:30:03;;;;;;;9.43;4.65;;;;;;;-146.27;89.52;83185.78;5025069;28;20040;-67
2023/04/30 08:32:29;;;;;;;7.32;4.45;;;;;;;-146.27;86.31;83167.69;5023567;28;20419;-69
2023/04/30 08:34:54;;;;;;;7.78;4.68;;;;;;;-146.27;85.04;83123.50;5028961;28;20055;-68
2023/04/30 08:37:20;;;;;;;9.15;5.45;;;;;;;-146.27;85.84;83163.69;5026361;28;20565;-68
2023/04/30 08:39:45;;;;;;;7.85;5.28;;;;;;;-146.27;83.84;83087.31;5028605;28;20381;-67
2023/04/30 08:42:13;;;;;;;10.02;5.35;;;;;;;-146.27;84.53;83125.50;5025354;28;20049;-70
2023/04/30 08:44:42;;;;;;;7.05;4.65;;;;;;;-146.27;85.51;83079.28;5028829;28;20409;-70
2023/04/30 08:47:12;;;;;;;5.68;4.60;;;;;;;-146.27;84.50;83025.03;5023138;28;20026;-72
2023/04/30 08:49:37;;;;;;;6.43;3.97;;;;;;;-146.27;82.96;83047.16;5024512;28;20071;-73
2023/04/30 08:52:03;;;;;;;8.13;4.22;;;;;;;-146.27;82.47;83004.94;5028394;28;20029;-73
2023/04/30 08:54:31;;;;;;;7.80;4.63;;;;;;;-146.27;80.43;83013.00;5030300;28;20476;-72
2023/04/30 08:56:56;;;;;;;4.25;3.78;;;;;;;-146.27;77.40;82922.59;5026107;28;20098;-73
2023/04/30 08:59:22;;;;;;;6.13;4.28;;;;;;;-146.27;80.10;82954.72;5013223;28;20128;-73
2023/04/30 09:01:48;;;;;;;6.18;4.38;;;;;;;-146.27;79.98;82954.72;5026000;28;20041;-73
2023/04/30 09:04:13;;;;;;;5.25;4.65;;;;;;;-146.27;79.30;82928.59;5032941;28;20624;-73
2023/04/30 09:06:38;;;;;;;7.22;4.13;;;;;;;-146.27;83.42;82888.44;5019024;28;20025;-73
2023/04/30 09:09:11;;;;;;;6.63;4.35;;;;;;;-146.27;82.60;82862.31;5027684;28;20109;-72
2023/04/30 09:11:37;;;;;;;7.45;4.82;;;;;;;-146.27;82.92;82858.28;5025928;28;20558;-72
2023/04/30 09:14:03;;;;;;;6.82;4.03;;;;;;;-146.27;81.43;82836.19;5025782;28;20125;-76
2023/04/30 09:16:43;;;;;;;5.78;4.28;;;;;;;-146.27;82.97;82787.97;5028334;28;20026;-74
2023/04/30 09:19:09;;;;;;;7.28;3.92;;;;;;;-146.27;81.95;82749.81;5026493;28;20052;-74
2023/04/30 09:21:35;;;;;;;7.10;3.70;;;;;;;-146.27;80.90;82729.72;5027460;28;20039;-73
2023/04/30 09:24:03;;;;;;;6.13;3.78;;;;;;;-146.27;74.91;82711.63;5020559;28;20377;-76
2023/04/30 09:26:35;;;;;;;4.95;4.28;;;;;;;-146.27;77.93;82669.44;5023527;28;20071;-73
2023/04/30 09:29:06;;;;;;;6.75;3.80;;;;;;;-146.27;76.68;82597.13;5031755;28;20040;-71
2023/04/30 09:31:32;;;;;;;5.32;4.00;;;;;;;-146.27;77.79;82595.13;5028467;28;20053;-73
2023/04/30 09:33:58;;;;;;;5.15;3.67;;;;;;;-146.27;75.93;82621.22;5028735;28;20029;-73
2023/04/30 09:36:23;;;;;;;5.60;3.10;;;;;;;-146.27;70.67;82595.13;5023308;28;20046;-73
2023/04/30 09:38:49;;;;;;;6.07;3.42;;;;;;;-146.27;73.16;82599.13;5025358;28;20108;-72
2023/04/30 09:41:23;;;;;;;6.88;4.38;;;;;;;-146.27;72.68;82532.84;5035492;28;20108;-74
2023/04/30 09:43:49;;;;;;;6.63;4.22;;;;;;;-146.27;70.34;82496.69;5028986;28;20281;-73
2023/04/30 09:46:15;;;;;;;4.97;3.90;;;;;;;-146.27;75.48;82508.72;5027073;28;20361;-74
2023/04/30 09:48:43;;;;;;;4.85;3.17;;;;;;;-146.27;70.75;82492.66;5031995;28;20025;-74
2023/04/30 09:51:09;;;;;;;6.10;3.50;;;;;;;-146.27;65.11;82502.72;5032490;28;20025;-73
2023/04/30 09:53:37;;;;;;;3.95;3.25;;;;;;;-146.27;65.26;82577.03;5037479;28;20075;-74
2023/04/30 09:56:06;;;;;;;5.63;3.90;;;;;;;-146.27;68.36;82428.38;5031837;28;20159;-74
2023/04/30 09:58:36;;;;;;;6.03;3.50;;;;;;;-146.27;71.61;82456.50;5026007;28;20469;-73
2023/04/30 10:01:07;;;;;;;5.22;3.78;;;;;;;-146.27;62.79;82460.53;5025757;28;20295;-73
2023/04/30 10:03:33;;;;;;;4.50;3.75;;;;;;;-146.27;69.46;82420.34;5022482;28;20064;-74
2023/04/30 10:05:59;;;;;;;8.13;4.20;;;;;;;-146.27;68.69;82384.19;5038665;28;20029;-74
2023/04/30 10:08:32;;;;;;;7.10;4.25;;;;;;;-146.27;68.30;82402.25;5035075;28;20029;-74
2023/04/30 10:11:03;;;;;;;11.77;4.80;;;;;;;-146.27;69.16;82323.91;5029142;28;20088;-73
2023/04/30 10:13:36;;;;;;;8.25;4.30;;;;;;;-146.27;69.47;82225.50;5026735;28;20055;-74
2023/04/30 10:16:10;;;;;;;7.05;3.78;;;;;;;-146.27;61.62;82305.84;5032980;28;20071;-73
2023/04/30 10:18:42;;;;;;;5.93;4.82;;;;;;;-146.27;62.47;82299.81;5028321;28;20041;-73
2023/04/30 10:21:14;;;;;;;6.97;4.28;;;;;;;-146.27;64.84;82237.53;5031154;28;20456;-72
2023/04/30 10:23:42;;;;;;;5.40;3.97;;;;;;;-146.27;66.70;82245.59;5044381;28;20033;-72
2023/04/30 10:26:10;;;;;;;6.20;4.18;;;;;;;-146.27;64.87;82251.59;5031660;28;20044;-70
2023/04/30 10:28:36;;;;;;;6.95;4.20;;;;;;;-146.27;66.71;82179.28;5028729;28;20034;-71
2023/04/30 10:31:03;;;;;;;3.95;3.55;;;;;;;-146.27;63.87;82139.13;5023721;28;20029;-69
2023/04/30 10:33:36;;;;;;;5.85;4.13;;;;;;;-146.27;66.55;82090.91;5027737;28;20522;-74
2023/04/30 10:36:11;;;;;;;4.65;3.33;;;;;;;-146.27;58.59;82074.84;5027473;28;20387;-73
2023/04/30 10:38:37;;;;;;;7.05;3.20;;;;;;;-146.27;55.90;82062.78;5024197;28;20052;-76
2023/04/30 10:41:06;;;;;;;4.63;3.08;;;;;;;-146.27;54.12;82046.72;5025939;28;20080;-74
2023/04/30 10:43:34;;;;;;;3.78;2.90;;;;;;;-146.27;56.21;82072.84;5027956;28;20029;-73
2023/04/30 10:45:59;;;;;;;3.13;1.70;;;;;;;-146.27;50.31;82078.84;5030394;28;20036;-73
2023/04/30 10:48:25;;;;;;;2.50;2.05;;;;;;;-146.27;49.86;82056.75;5031467;28;20018;-75
2023/04/30 10:50:56;;;;;;;2.05;1.50;;;;;;;-146.27;48.09;82014.59;5029174;28;20029;-73
2023/04/30 10:53:24;;;;;;;2.97;1.63;;;;;;;-146.27;48.98;82024.63;5030415;28;20033;-73
2023/04/30 10:56:05;;;;;;;6.32;2.80;;;;;;;-146.27;53.74;81986.47;5029927;28;21881;-72
2023/04/30 10:58:35;;;;;;;5.45;3.70;;;;;;;-146.27;56.73;81924.19;5021104;28;20032;-72
2023/04/30 11:01:03;;;;;;;3.85;3.05;;;;;;;-146.27;54.36;81938.25;5037555;28;20296;-75
2023/04/30 11:03:29;;;;;;;2.92;2.35;;;;;;;-146.27;51.09;81878.00;5034657;28;20025;-74